Time;durP1;ratioP1;P1;durP2;ratioP2;P2;SDS_P1;SDS_P2;PMS_P1;PMS_P2;Temp;Humidity;BMP_temperature;BMP_pressure;BME280_temperature;BME280_humidity;BME280_pressure;Samples;Min_cycle;Max_cycle;Signal;HPM_P1;HPM_P2
2022/07/24 00:00:05;;;;;;;2.00;1.90;;;25.50;53.70;;;;;;4993764;28;20433;-48
2022/07/24 00:02:40;;;;;;;2.00;1.90;;;25.50;53.60;;;;;;4990998;28;20469;-48
2022/07/24 00:05:09;;;;;;;2.57;2.40;;;25.50;53.60;;;;;;4980764;28;20446;-48
2022/07/24 00:07:41;;;;;;;2.10;2.00;;;25.50;53.50;;;;;;4989999;28;20896;-48
2022/07/24 00:10:12;;;;;;;2.57;2.07;;;25.50;53.70;;;;;;4985097;28;20479;-47
2022/07/24 00:12:40;;;;;;;1.97;1.87;;;25.50;53.60;;;;;;4994378;28;20540;-47
2022/07/24 00:15:09;;;;;;;2.50;2.30;;;25.50;53.60;;;;;;4982310;28;20465;-46
2022/07/24 00:17:38;;;;;;;2.33;2.23;;;25.50;53.70;;;;;;4990960;28;20466;-48
2022/07/24 00:20:11;;;;;;;2.10;2.00;;;25.50;53.60;;;;;;4988759;28;20446;-48
2022/07/24 00:22:40;;;;;;;2.00;1.90;;;25.50;53.50;;;;;;4988945;28;20465;-48
2022/07/24 00:25:09;;;;;;;2.43;2.33;;;25.50;53.50;;;;;;4987216;28;20862;-48
2022/07/24 00:27:37;;;;;;;3.77;2.40;;;25.50;53.50;;;;;;5001772;28;20469;-48
2022/07/24 00:30:07;;;;;;;2.30;2.20;;;25.50;53.50;;;;;;4983549;28;20445;-48
2022/07/24 00:32:36;;;;;;;2.43;2.23;;;25.50;53.50;;;;;;4970308;28;20466;-48
2022/07/24 00:35:06;;;;;;;2.37;2.00;;;25.50;53.50;;;;;;4981786;28;20445;-48
2022/07/24 00:37:36;;;;;;;1.97;1.87;;;25.50;53.50;;;;;;4998523;28;20476;-48
2022/07/24 00:40:06;;;;;;;2.90;2.70;;;25.50;53.50;;;;;;4993116;28;20859;-48
2022/07/24 00:42:34;;;;;;;2.37;2.17;;;25.40;53.50;;;;;;4996257;28;20490;-48
2022/07/24 00:45:03;;;;;;;2.30;2.10;;;25.50;53.40;;;;;;5000706;28;20917;-48
2022/07/24 00:47:52;;;;;;;2.30;2.10;;;25.50;53.40;;;;;;4987245;28;20549;-48
2022/07/24 00:50:26;;;;;;;2.70;2.50;;;25.50;53.30;;;;;;4988269;28;20542;-48
2022/07/24 00:52:56;;;;;;;2.87;2.67;;;25.50;53.40;;;;;;4989759;28;20508;-48
2022/07/24 00:55:26;;;;;;;2.50;2.30;;;25.50;53.50;;;;;;4989965;28;20446;-48
2022/07/24 00:57:54;;;;;;;2.70;2.50;;;25.50;53.40;;;;;;4999915;28;20488;-48
2022/07/24 01:00:23;;;;;;;2.60;2.23;;;25.50;53.40;;;;;;4991376;28;20536;-48
2022/07/24 01:02:52;;;;;;;2.70;2.50;;;25.50;53.40;;;;;;4990680;28;20732;-48
2022/07/24 01:05:20;;;;;;;2.30;2.10;;;25.50;53.30;;;;;;5001665;28;21004;-48
2022/07/24 01:07:49;;;;;;;3.37;3.07;;;25.40;53.10;;;;;;4974459;28;21087;-48
2022/07/24 01:10:19;;;;;;;2.40;2.30;;;25.50;53.20;;;;;;4985933;28;20437;-48
2022/07/24 01:12:48;;;;;;;2.70;2.50;;;25.40;53.10;;;;;;4979822;28;20474;-49
2022/07/24 01:15:16;;;;;;;2.70;2.50;;;25.50;53.20;;;;;;4997609;28;20528;-48
2022/07/24 01:17:45;;;;;;;2.90;2.70;;;25.50;53.20;;;;;;4999151;28;20476;-48
2022/07/24 01:20:13;;;;;;;3.03;2.83;;;25.50;53.30;;;;;;4998916;28;20448;-48
2022/07/24 01:22:45;;;;;;;2.10;2.00;;;25.50;53.30;;;;;;5000100;28;20508;-49
2022/07/24 01:25:15;;;;;;;2.70;2.50;;;25.50;53.30;;;;;;4996873;28;20851;-48
2022/07/24 01:27:43;;;;;;;3.13;2.83;;;25.40;53.10;;;;;;4985950;28;20516;-48
2022/07/24 01:30:11;;;;;;;4.47;2.90;;;25.50;53.10;;;;;;4993062;28;20450;-48
2022/07/24 01:32:40;;;;;;;3.53;3.07;;;25.50;54.30;;;;;;4994268;28;20845;-49
2022/07/24 01:35:10;;;;;;;2.57;2.37;;;25.40;53.00;;;;;;4987205;28;20492;-48
2022/07/24 01:37:51;;;;;;;2.90;2.60;;;25.40;53.20;;;;;;4989509;28;20484;-48
2022/07/24 01:40:20;;;;;;;3.03;2.43;;;25.50;53.20;;;;;;4998086;28;20446;-48
2022/07/24 01:42:49;;;;;;;2.47;2.27;;;25.40;53.20;;;;;;4993406;28;20471;-48
2022/07/24 01:45:18;;;;;;;3.33;3.13;;;25.40;53.20;;;;;;4989444;28;20533;-48
2022/07/24 01:47:47;;;;;;;2.90;2.70;;;25.40;53.00;;;;;;4988765;28;20521;-48
2022/07/24 01:50:16;;;;;;;2.97;2.67;;;25.40;53.20;;;;;;4974569;28;20437;-48
2022/07/24 01:52:44;;;;;;;3.20;2.83;;;25.40;53.10;;;;;;4989374;28;20457;-48
2022/07/24 01:55:14;;;;;;;3.53;3.23;;;25.40;53.10;;;;;;4993950;28;20444;-48
2022/07/24 01:57:43;;;;;;;2.33;2.13;;;25.40;52.90;;;;;;4997139;28;20565;-47
2022/07/24 02:00:12;;;;;;;2.50;2.30;;;25.40;53.00;;;;;;4980131;28;20434;-47
2022/07/24 02:02:42;;;;;;;2.60;2.40;;;25.40;53.10;;;;;;4988691;28;20474;-49
2022/07/24 02:05:13;;;;;;;2.80;2.60;;;25.40;52.90;;;;;;4990883;28;20816;-48
2022/07/24 02:07:42;;;;;;;3.23;3.03;;;25.40;52.90;;;;;;5009285;28;20472;-48
2022/07/24 02:10:12;;;;;;;2.83;2.63;;;25.40;52.70;;;;;;4985310;28;20454;-48
2022/07/24 02:12:42;;;;;;;2.83;2.63;;;25.40;52.90;;;;;;5000041;28;20457;-48
2022/07/24 02:15:11;;;;;;;2.93;2.60;;;25.40;54.10;;;;;;4996732;28;20525;-48
2022/07/24 02:17:40;;;;;;;2.77;2.57;;;25.40;52.70;;;;;;5000990;28;20479;-48
2022/07/24 02:20:09;;;;;;;2.53;2.33;;;25.40;52.90;;;;;;4982721;28;20854;-48
2022/07/24 02:22:39;;;;;;;2.23;2.10;;;25.40;53.00;;;;;;4999253;28;20848;-49
2022/07/24 02:25:08;;;;;;;2.60;2.40;;;25.40;53.10;;;;;;4992864;28;20473;-48
2022/07/24 02:27:37;;;;;;;2.60;2.40;;;25.40;53.00;;;;;;4980575;28;21026;-48
2022/07/24 02:30:10;;;;;;;2.50;2.40;;;25.40;53.10;;;;;;5004359;28;20484;-48
2022/07/24 02:32:40;;;;;;;2.00;1.90;;;25.40;53.20;;;;;;4996292;28;20466;-49
2022/07/24 02:35:09;;;;;;;2.50;2.30;;;25.40;53.10;;;;;;4990855;28;20445;-49
2022/07/24 02:37:39;;;;;;;2.40;2.30;;;25.40;53.10;;;;;;4992546;28;20476;-48
2022/07/24 02:40:09;;;;;;;2.73;2.53;;;25.40;53.10;;;;;;4996328;28;20476;-48
2022/07/24 02:42:42;;;;;;;2.87;2.67;;;25.40;53.10;;;;;;4990626;28;20839;-48
2022/07/24 02:45:13;;;;;;;2.67;2.47;;;25.40;53.20;;;;;;4985607;28;20532;-49
2022/07/24 02:47:49;;;;;;;3.17;2.97;;;25.40;53.10;;;;;;4999780;28;20477;-48
2022/07/24 02:50:18;;;;;;;2.70;2.50;;;25.40;53.00;;;;;;4973590;28;20832;-48
2022/07/24 02:52:46;;;;;;;2.67;2.47;;;25.40;53.00;;;;;;4991260;28;20476;-49
2022/07/24 02:55:15;;;;;;;2.73;2.53;;;25.40;53.00;;;;;;5005048;28;20525;-48
2022/07/24 02:57:44;;;;;;;2.70;2.50;;;25.30;52.90;;;;;;4993934;28;20482;-47
2022/07/24 03:00:16;;;;;;;2.70;2.50;;;25.40;53.00;;;;;;4976370;28;20928;-48
2022/07/24 03:02:45;;;;;;;3.23;3.03;;;25.40;52.80;;;;;;5045461;23;20497;-49
2022/07/24 03:05:13;;;;;;;3.10;2.80;;;25.40;52.80;;;;;;4996859;28;21003;-47
2022/07/24 03:07:41;;;;;;;2.97;2.77;;;25.40;52.80;;;;;;4978381;28;20494;-51
2022/07/24 03:10:12;;;;;;;2.90;2.40;;;25.30;52.80;;;;;;4973349;28;20529;-48
2022/07/24 03:12:41;;;;;;;2.60;2.40;;;25.30;52.80;;;;;;4972236;28;20463;-48
2022/07/24 03:15:10;;;;;;;3.03;2.73;;;25.30;52.80;;;;;;4979850;28;20431;-48
2022/07/24 03:17:40;;;;;;;2.60;2.40;;;25.30;52.70;;;;;;4979493;28;20482;-49
2022/07/24 03:20:10;;;;;;;2.80;2.50;;;25.30;52.80;;;;;;4967439;28;20972;-50
2022/07/24 03:22:39;;;;;;;2.70;2.50;;;25.30;52.80;;;;;;4987934;28;20464;-48
2022/07/24 03:25:07;;;;;;;2.50;2.30;;;25.30;52.90;;;;;;4958214;28;20458;-47
2022/07/24 03:27:35;;;;;;;3.40;3.10;;;25.30;52.80;;;;;;4984598;28;20509;-48
2022/07/24 03:30:06;;;;;;;2.80;2.60;;;25.30;52.70;;;;;;4974063;28;20450;-47
2022/07/24 03:32:34;;;;;;;2.60;2.40;;;25.30;52.90;;;;;;4984496;28;21053;-49
2022/07/24 03:35:04;;;;;;;2.40;2.20;;;25.30;52.90;;;;;;4976806;28;20491;-49
2022/07/24 03:37:33;;;;;;;2.50;2.30;;;25.30;53.00;;;;;;4987415;28;20462;-47
2022/07/24 03:40:01;;;;;;;2.40;2.20;;;25.30;53.00;;;;;;4955842;28;20430;-47
2022/07/24 03:42:29;;;;;;;2.60;2.40;;;25.30;53.10;;;;;;4954533;28;20462;-47
2022/07/24 03:44:57;;;;;;;3.03;2.83;;;25.30;53.00;;;;;;4974322;28;20511;-47
2022/07/24 03:47:26;;;;;;;2.77;2.57;;;25.30;52.90;;;;;;4962893;28;20506;-48
2022/07/24 03:49:55;;;;;;;3.07;2.87;;;25.30;52.90;;;;;;4977379;28;20585;-48
2022/07/24 03:52:24;;;;;;;2.70;2.50;;;25.30;53.00;;;;;;4977505;28;20463;-48
2022/07/24 03:54:54;;;;;;;2.43;2.30;;;25.30;53.00;;;;;;4972716;28;20520;-48
2022/07/24 03:57:23;;;;;;;2.90;2.70;;;25.30;52.90;;;;;;4975497;28;20470;-48
2022/07/24 03:59:52;;;;;;;2.80;2.57;;;25.30;52.90;;;;;;4978968;28;20477;-47
2022/07/24 04:02:20;;;;;;;3.57;3.27;;;25.30;52.90;;;;;;4979722;28;20463;-50
2022/07/24 04:04:51;;;;;;;3.07;2.80;;;25.30;52.80;;;;;;4968073;28;20495;-49
2022/07/24 04:07:19;;;;;;;2.73;2.53;;;25.20;52.80;;;;;;4970982;28;20892;-48
2022/07/24 04:09:48;;;;;;;2.77;2.57;;;25.20;52.70;;;;;;4971759;28;20859;-50
2022/07/24 04:12:17;;;;;;;2.83;2.63;;;25.20;52.90;;;;;;4954136;28;20553;-50
2022/07/24 04:14:46;;;;;;;2.80;2.60;;;25.20;52.50;;;;;;4963956;28;20440;-46
2022/07/24 04:17:15;;;;;;;2.73;2.53;;;25.20;52.70;;;;;;4981841;28;20469;-47
2022/07/24 04:19:43;;;;;;;2.63;2.43;;;25.20;52.70;;;;;;4976925;28;20926;-49
2022/07/24 04:22:11;;;;;;;2.80;2.60;;;25.20;52.70;;;;;;4970927;28;20553;-48
2022/07/24 04:24:40;;;;;;;2.70;2.50;;;25.20;52.90;;;;;;4975974;28;20470;-47
2022/07/24 04:27:09;;;;;;;2.50;2.40;;;25.20;52.90;;;;;;4970680;28;20480;-47
2022/07/24 04:29:38;;;;;;;2.80;2.60;;;25.20;53.00;;;;;;4982816;28;20482;-47
2022/07/24 04:32:06;;;;;;;3.10;2.67;;;25.20;52.90;;;;;;4980402;28;20470;-46
2022/07/24 04:34:34;;;;;;;2.53;2.33;;;25.20;52.90;;;;;;4979695;28;20775;-46
2022/07/24 04:37:03;;;;;;;1.93;1.80;;;25.20;52.90;;;;;;4976579;28;20471;-46
2022/07/24 04:39:31;;;;;;;2.57;2.37;;;25.20;53.00;;;;;;4978470;28;20442;-46
2022/07/24 04:41:59;;;;;;;2.77;2.53;;;25.20;53.00;;;;;;4981849;28;20521;-46
2022/07/24 04:44:28;;;;;;;2.00;1.90;;;25.20;52.90;;;;;;4969839;28;20687;-47
2022/07/24 04:46:57;;;;;;;2.63;2.43;;;25.20;52.90;;;;;;4970532;28;20978;-47
2022/07/24 04:49:25;;;;;;;2.57;2.37;;;25.10;52.90;;;;;;4979979;28;20434;-47
2022/07/24 04:51:54;;;;;;;2.83;2.63;;;25.20;53.10;;;;;;4978796;28;20557;-49
2022/07/24 04:54:22;;;;;;;2.50;2.33;;;25.20;53.00;;;;;;4984478;28;20521;-47
2022/07/24 04:56:50;;;;;;;2.70;2.50;;;25.20;53.00;;;;;;4973403;28;20478;-46
2022/07/24 04:59:19;;;;;;;2.93;2.73;;;25.20;53.10;;;;;;4978242;28;20438;-47
2022/07/24 05:01:49;;;;;;;2.33;2.23;;;25.20;53.10;;;;;;4963296;28;20462;-48
2022/07/24 05:04:17;;;;;;;2.37;2.17;;;25.10;53.00;;;;;;4976008;28;20446;-48
2022/07/24 05:06:46;;;;;;;2.53;2.33;;;25.10;53.00;;;;;;4976953;28;20783;-48
2022/07/24 05:09:14;;;;;;;2.80;2.60;;;25.10;53.10;;;;;;4985531;28;20439;-49
2022/07/24 05:11:43;;;;;;;2.50;2.30;;;25.10;53.10;;;;;;4953314;28;20465;-49
2022/07/24 05:14:11;;;;;;;3.03;2.73;;;25.10;53.10;;;;;;4962518;28;20441;-45
2022/07/24 05:16:39;;;;;;;2.10;1.90;;;25.10;53.10;;;;;;4970960;28;20485;-48
2022/07/24 05:19:10;;;;;;;2.10;2.00;;;25.10;53.10;;;;;;4970812;28;20963;-47
2022/07/24 05:21:38;;;;;;;2.73;2.53;;;25.10;53.10;;;;;;4973643;28;20946;-47
2022/07/24 05:24:07;;;;;;;4.40;4.10;;;25.10;53.00;;;;;;4971788;28;20905;-49
2022/07/24 05:26:36;;;;;;;6.00;5.37;;;25.10;52.80;;;;;;4970005;28;20554;-48
2022/07/24 05:29:06;;;;;;;7.70;5.37;;;25.10;52.70;;;;;;4973656;28;20446;-50
2022/07/24 05:31:35;;;;;;;6.60;6.07;;;25.00;52.70;;;;;;4977787;28;20521;-48
2022/07/24 05:34:10;;;;;;;5.97;5.33;;;24.90;52.40;;;;;;4974051;28;20437;-51
2022/07/24 05:36:38;;;;;;;6.13;5.53;;;24.90;52.40;;;;;;4977208;28;20827;-49
2022/07/24 05:39:07;;;;;;;9.97;6.70;;;24.90;52.20;;;;;;4962160;28;20435;-49
2022/07/24 05:41:36;;;;;;;7.07;6.43;;;24.80;52.20;;;;;;4981835;28;26040;-49
2022/07/24 05:44:05;;;;;;;6.93;6.30;;;24.80;52.10;;;;;;4969096;28;20454;-49
2022/07/24 05:46:33;;;;;;;6.10;5.60;;;24.70;53.30;;;;;;4964862;28;20525;-47
2022/07/24 05:49:01;;;;;;;6.43;5.93;;;24.70;52.50;;;;;;4965577;28;20529;-48
2022/07/24 05:51:32;;;;;;;7.30;5.67;;;24.70;52.40;;;;;;4971490;28;20510;-49
2022/07/24 05:54:00;;;;;;;6.80;6.20;;;24.60;52.40;;;;;;4982178;28;20505;-49
2022/07/24 05:56:28;;;;;;;6.43;5.83;;;24.60;52.80;;;;;;4973405;28;20579;-50
2022/07/24 05:58:57;;;;;;;6.47;5.17;;;24.60;52.90;;;;;;4971079;28;20458;-50
2022/07/24 06:01:25;;;;;;;6.30;5.80;;;24.50;53.20;;;;;;4978243;28;20464;-46
2022/07/24 06:03:53;;;;;;;6.07;5.47;;;24.50;53.50;;;;;;4977591;28;20542;-49
2022/07/24 06:06:21;;;;;;;6.23;5.60;;;24.40;53.40;;;;;;4975103;28;20486;-49
2022/07/24 06:08:50;;;;;;;6.97;6.27;;;24.40;53.40;;;;;;4975074;28;20537;-49
2022/07/24 06:11:20;;;;;;;5.53;5.03;;;24.40;53.40;;;;;;4969445;28;20832;-49
2022/07/24 06:13:48;;;;;;;6.63;6.03;;;24.40;53.40;;;;;;4967053;28;20479;-51
2022/07/24 06:16:16;;;;;;;6.50;5.90;;;24.40;53.90;;;;;;4978462;28;20906;-50
2022/07/24 06:18:45;;;;;;;6.30;5.80;;;24.30;53.70;;;;;;4979109;28;20859;-49
2022/07/24 06:21:13;;;;;;;6.77;5.77;;;24.30;53.70;;;;;;4964500;28;20549;-50
2022/07/24 06:23:41;;;;;;;5.80;5.30;;;24.30;53.80;;;;;;4983786;28;20504;-49
2022/07/24 06:26:11;;;;;;;6.20;5.60;;;24.30;54.10;;;;;;4977401;28;20462;-48
2022/07/24 06:28:39;;;;;;;9.00;6.17;;;24.30;54.10;;;;;;4984002;28;21091;-51
2022/07/24 06:31:07;;;;;;;5.80;5.30;;;24.30;54.10;;;;;;4970638;28;20484;-51
2022/07/24 06:33:40;;;;;;;5.47;5.07;;;24.30;54.10;;;;;;4975590;28;20474;-49
2022/07/24 06:36:09;;;;;;;7.03;6.43;;;24.30;54.00;;;;;;4967922;28;20942;-50
2022/07/24 06:38:37;;;;;;;6.10;5.50;;;24.30;53.70;;;;;;4981114;28;20550;-48
2022/07/24 06:41:06;;;;;;;6.57;5.63;;;24.30;53.70;;;;;;4989669;28;20427;-48
2022/07/24 06:43:36;;;;;;;6.37;5.80;;;24.30;53.70;;;;;;4979454;28;20471;-48
2022/07/24 06:46:04;;;;;;;5.87;5.27;;;24.30;53.40;;;;;;4969233;28;21201;-48
2022/07/24 06:48:33;;;;;;;5.97;5.47;;;24.40;53.40;;;;;;4962431;28;20466;-47
2022/07/24 06:51:02;;;;;;;7.10;6.00;;;24.50;53.30;;;;;;4971518;28;20531;-49
2022/07/24 06:53:31;;;;;;;6.10;5.60;;;24.60;52.80;;;;;;4940724;28;20486;-46
2022/07/24 06:55:59;;;;;;;9.73;5.40;;;24.70;52.10;;;;;;4973894;28;20449;-50
2022/07/24 06:58:27;;;;;;;6.00;5.40;;;24.80;51.80;;;;;;4972118;28;20653;-51
2022/07/24 07:00:59;;;;;;;6.70;6.00;;;24.90;51.80;;;;;;4939832;28;20457;-48
2022/07/24 07:03:27;;;;;;;11.80;5.20;;;25.00;51.40;;;;;;4971057;28;20475;-51
2022/07/24 07:05:56;;;;;;;8.80;6.40;;;25.10;51.30;;;;;;4980205;28;20459;-50
2022/07/24 07:08:24;;;;;;;14.67;7.30;;;25.20;51.00;;;;;;4960380;28;20481;-49
2022/07/24 07:10:52;;;;;;;7.37;5.93;;;25.20;50.90;;;;;;4980850;28;20438;-48
2022/07/24 07:13:22;;;;;;;11.23;6.00;;;25.30;50.80;;;;;;4970123;28;21012;-48
2022/07/24 07:15:51;;;;;;;9.40;6.80;;;25.30;50.60;;;;;;4973701;28;20501;-48
2022/07/24 07:18:21;;;;;;;8.00;5.63;;;25.40;50.20;;;;;;4988119;28;20465;-48
2022/07/24 07:20:53;;;;;;;9.93;6.10;;;25.40;50.50;;;;;;4985249;28;20548;-49
2022/07/24 07:23:23;;;;;;;12.03;6.97;;;25.30;50.30;;;;;;4988157;28;20464;-47
2022/07/24 07:25:58;;;;;;;13.57;6.70;;;25.40;50.20;;;;;;4984256;28;20465;-48
2022/07/24 07:28:27;;;;;;;10.60;6.03;;;25.40;50.50;;;;;;4974526;28;20478;-47
2022/07/24 07:30:56;;;;;;;11.83;7.03;;;25.40;50.30;;;;;;4968672;28;20828;-48
2022/07/24 07:33:26;;;;;;;8.53;5.80;;;25.50;49.80;;;;;;4954113;28;20475;-48
2022/07/24 07:35:55;;;;;;;10.60;6.60;;;25.40;49.60;;;;;;4975262;28;21033;-45
2022/07/24 07:38:24;;;;;;;8.47;5.70;;;25.50;50.00;;;;;;4956372;28;21064;-48
2022/07/24 07:40:54;;;;;;;11.83;6.50;;;25.40;50.00;;;;;;4970331;28;20466;-47
2022/07/24 07:43:24;;;;;;;9.23;6.57;;;25.50;50.00;;;;;;4956639;28;20973;-48
2022/07/24 07:45:52;;;;;;;8.20;6.33;;;25.40;49.50;;;;;;4975176;28;20439;-49
2022/07/24 07:48:20;;;;;;;10.73;6.03;;;25.40;49.80;;;;;;4973378;28;20553;-49
2022/07/24 07:50:51;;;;;;;7.83;6.40;;;25.40;49.80;;;;;;4954060;28;20485;-49
2022/07/24 07:53:19;;;;;;;10.43;6.10;;;25.40;49.90;;;;;;4970651;28;20494;-48
2022/07/24 07:55:51;;;;;;;8.17;6.23;;;25.40;50.30;;;;;;4979587;28;21004;-46
2022/07/24 07:58:19;;;;;;;6.40;5.80;;;25.40;49.80;;;;;;4965024;28;20550;-48
2022/07/24 08:00:49;;;;;;;7.03;5.90;;;25.40;49.70;;;;;;4952731;28;20823;-47
2022/07/24 08:03:18;;;;;;;6.83;6.23;;;25.40;49.70;;;;;;4958220;28;20496;-47
2022/07/24 08:05:51;;;;;;;6.97;6.30;;;25.40;50.00;;;;;;4952525;28;20493;-48
2022/07/24 08:08:26;;;;;;;8.07;6.93;;;25.40;49.70;;;;;;4969626;28;20510;-46
2022/07/24 08:10:54;;;;;;;7.87;7.07;;;25.40;49.80;;;;;;4973378;28;20498;-49
2022/07/24 08:13:23;;;;;;;6.37;5.77;;;25.40;49.40;;;;;;4972072;28;20471;-50
2022/07/24 08:15:52;;;;;;;7.03;6.43;;;25.40;49.40;;;;;;4954283;28;20455;-47
2022/07/24 08:18:20;;;;;;;6.77;6.10;;;25.40;49.40;;;;;;4974951;28;20692;-46
2022/07/24 08:20:49;;;;;;;6.13;5.60;;;25.40;49.70;;;;;;4968175;28;20442;-51
2022/07/24 08:23:18;;;;;;;7.40;5.83;;;25.40;49.90;;;;;;4981932;28;20571;-47
2022/07/24 08:25:46;;;;;;;5.80;5.30;;;25.30;50.10;;;;;;4969591;28;21013;-48
2022/07/24 08:28:14;;;;;;;5.40;5.00;;;25.20;50.50;;;;;;4969358;28;20557;-48
2022/07/24 08:30:42;;;;;;;5.53;5.10;;;25.10;50.70;;;;;;4968094;28;20440;-50
2022/07/24 08:33:11;;;;;;;5.93;5.43;;;25.00;50.90;;;;;;4974003;28;20767;-47
2022/07/24 08:35:39;;;;;;;5.70;5.20;;;25.00;51.00;;;;;;4954468;28;20546;-50
2022/07/24 08:38:07;;;;;;;7.30;5.13;;;25.00;51.30;;;;;;4954661;28;20534;-48
2022/07/24 08:40:39;;;;;;;5.43;5.03;;;24.90;51.30;;;;;;4979442;28;20447;-48
2022/07/24 08:43:10;;;;;;;6.20;5.60;;;24.90;51.50;;;;;;4970222;28;20474;-47
2022/07/24 08:45:40;;;;;;;5.20;4.80;;;24.90;51.60;;;;;;4969394;28;20526;-48
2022/07/24 08:48:10;;;;;;;6.10;5.50;;;24.90;51.60;;;;;;4962404;28;20473;-47
2022/07/24 08:50:40;;;;;;;5.00;4.60;;;24.90;51.60;;;;;;4976401;28;20849;-51
2022/07/24 08:53:10;;;;;;;6.00;5.40;;;24.90;51.70;;;;;;4970541;28;20573;-47
2022/07/24 08:55:40;;;;;;;6.33;5.73;;;24.90;51.80;;;;;;4971229;28;20493;-47
2022/07/24 08:58:09;;;;;;;6.40;4.87;;;24.90;51.70;;;;;;4970620;28;20529;-48
2022/07/24 09:00:37;;;;;;;5.67;5.27;;;24.90;51.80;;;;;;4969555;28;20935;-47
2022/07/24 09:03:05;;;;;;;5.80;5.40;;;24.90;51.80;;;;;;4971945;28;20461;-48
2022/07/24 09:05:35;;;;;;;6.13;4.87;;;24.90;51.80;;;;;;4967292;28;20862;-51
2022/07/24 09:08:12;;;;;;;6.03;4.60;;;24.90;51.80;;;;;;4981169;28;20501;-45
2022/07/24 09:10:42;;;;;;;5.23;4.73;;;24.90;51.80;;;;;;5012724;22;20900;-48
2022/07/24 09:13:15;;;;;;;5.50;5.00;;;24.90;51.90;;;;;;5004360;28;20483;-47
2022/07/24 09:15:46;;;;;;;5.43;4.93;;;24.90;51.80;;;;;;5021283;28;20433;-47
2022/07/24 09:18:28;;;;;;;5.00;4.60;;;24.90;51.80;;;;;;4993511;28;20881;-46
2022/07/24 09:20:58;;;;;;;4.77;4.43;;;24.90;51.90;;;;;;4990343;28;20536;-49
2022/07/24 09:23:27;;;;;;;5.10;4.70;;;24.90;51.90;;;;;;5001629;28;20481;-49
2022/07/24 09:25:56;;;;;;;5.40;4.90;;;24.90;51.90;;;;;;4984412;28;20445;-49
2022/07/24 09:28:25;;;;;;;5.03;4.63;;;24.90;51.90;;;;;;4991943;28;20477;-52
2022/07/24 09:31:01;;;;;;;5.00;4.60;;;24.90;51.90;;;;;;4997763;28;20515;-50
2022/07/24 09:33:36;;;;;;;5.17;4.83;;;24.90;51.90;;;;;;4995164;28;20479;-48
2022/07/24 09:36:13;;;;;;;6.53;4.80;;;24.90;51.90;;;;;;4991416;28;20556;-50
2022/07/24 09:38:48;;;;;;;5.10;4.53;;;24.90;52.00;;;;;;4975966;28;20846;-48
2022/07/24 09:41:23;;;;;;;4.40;4.07;;;24.90;52.00;;;;;;4976008;28;20445;-49
2022/07/24 09:43:59;;;;;;;3.93;3.63;;;24.90;52.00;;;;;;4992851;28;20478;-49
2022/07/24 09:46:27;;;;;;;5.57;5.07;;;24.90;52.00;;;;;;4996998;28;20513;-49
2022/07/24 09:48:58;;;;;;;5.00;4.60;;;24.90;52.00;;;;;;4993316;28;20473;-49
2022/07/24 09:51:29;;;;;;;4.83;4.37;;;24.90;52.00;;;;;;4998964;28;20473;-49
2022/07/24 09:53:59;;;;;;;5.00;4.60;;;24.90;52.00;;;;;;4994451;28;20836;-49
2022/07/24 09:56:30;;;;;;;4.77;4.37;;;24.90;52.00;;;;;;4998384;28;20541;-49
2022/07/24 09:59:00;;;;;;;4.43;4.13;;;24.90;52.00;;;;;;5002839;28;20461;-52
2022/07/24 10:01:30;;;;;;;4.30;4.00;;;24.90;52.00;;;;;;5000928;28;20941;-49
2022/07/24 10:04:00;;;;;;;4.43;4.10;;;24.90;52.00;;;;;;4991010;28;20533;-49
2022/07/24 10:06:30;;;;;;;5.07;4.67;;;24.90;52.00;;;;;;4983520;28;20457;-49
2022/07/24 10:08:58;;;;;;;4.63;4.20;;;24.90;52.00;;;;;;4961077;28;20567;-48
2022/07/24 10:11:27;;;;;;;4.77;4.37;;;24.90;52.00;;;;;;4992886;28;20449;-50
2022/07/24 10:13:58;;;;;;;4.13;3.80;;;24.90;52.00;;;;;;4990811;28;20445;-49
2022/07/24 10:16:31;;;;;;;5.20;4.70;;;24.90;52.00;;;;;;4995688;28;20461;-47
2022/07/24 10:19:01;;;;;;;4.30;3.90;;;24.90;52.00;;;;;;5004136;28;20426;-47
2022/07/24 10:21:32;;;;;;;5.30;4.90;;;24.90;52.00;;;;;;4993607;28;20453;-49
2022/07/24 10:24:34;;;;;;;4.70;4.40;;;24.90;52.00;;;;;;4983088;28;20454;-49
2022/07/24 10:27:05;;;;;;;4.73;4.43;;;24.90;52.00;;;;;;4993110;28;20465;-49
2022/07/24 10:29:36;;;;;;;4.60;4.20;;;24.90;52.00;;;;;;4984254;28;20442;-49
2022/07/24 10:32:05;;;;;;;5.20;4.70;;;24.90;52.10;;;;;;4992061;28;20488;-49
2022/07/24 10:34:44;;;;;;;5.33;4.93;;;24.90;52.10;;;;;;4991585;28;20528;-51
2022/07/24 10:37:20;;;;;;;4.53;4.13;;;25.00;52.10;;;;;;5000337;28;20817;-49
2022/07/24 10:39:59;;;;;;;4.83;4.47;;;25.00;52.10;;;;;;5001683;28;20943;-49
2022/07/24 10:42:27;;;;;;;3.87;3.57;;;24.90;52.10;;;;;;5000893;28;20473;-51
2022/07/24 10:45:17;;;;;;;4.73;4.33;;;25.00;52.10;;;;;;4989258;28;20450;-49
2022/07/24 10:47:46;;;;;;;4.40;4.10;;;25.00;52.10;;;;;;4992755;28;20966;-51
2022/07/24 10:50:16;;;;;;;4.30;4.00;;;24.90;52.00;;;;;;4998068;28;20500;-49
2022/07/24 10:52:44;;;;;;;4.00;3.70;;;25.00;52.10;;;;;;5005609;28;20461;-50
2022/07/24 10:55:29;;;;;;;4.60;4.30;;;25.00;52.10;;;;;;4989799;28;20497;-51
2022/07/24 10:58:12;;;;;;;4.83;4.43;;;25.00;52.10;;;;;;4989934;28;20562;-51
2022/07/24 11:00:44;;;;;;;4.47;4.07;;;25.00;52.00;;;;;;4996247;28;20465;-49
2022/07/24 11:03:20;;;;;;;5.57;5.17;;;25.00;52.10;;;;;;4984220;28;20461;-49
2022/07/24 11:06:06;;;;;;;4.87;4.47;;;25.00;52.10;;;;;;4990611;28;20456;-49
2022/07/24 11:08:38;;;;;;;4.70;4.40;;;25.00;52.10;;;;;;4994391;28;20906;-50
2022/07/24 11:11:12;;;;;;;4.80;4.40;;;25.00;52.10;;;;;;4994674;28;20552;-50
2022/07/24 11:13:59;;;;;;;4.20;3.90;;;25.00;52.10;;;;;;5006610;28;20983;-49
2022/07/24 11:16:32;;;;;;;4.33;4.03;;;25.00;52.10;;;;;;4988180;28;20473;-47
2022/07/24 11:19:27;;;;;;;4.77;4.47;;;25.00;52.10;;;;;;5004800;28;20465;-47
2022/07/24 11:22:12;;;;;;;4.00;3.70;;;25.10;52.10;;;;;;4990193;28;20474;-48
2022/07/24 11:25:08;;;;;;;5.20;4.80;;;25.10;52.00;;;;;;4988067;28;20430;-50
2022/07/24 11:27:45;;;;;;;4.07;3.77;;;25.00;52.00;;;;;;4990313;28;20465;-50
2022/07/24 11:30:14;;;;;;;4.50;4.20;;;25.10;52.10;;;;;;4994076;28;20464;-47
2022/07/24 11:32:44;;;;;;;4.37;4.07;;;25.10;52.10;;;;;;4985576;28;20467;-53
2022/07/24 11:35:13;;;;;;;4.37;3.87;;;25.10;52.10;;;;;;4995980;28;20481;-49
2022/07/24 11:37:43;;;;;;;3.87;3.57;;;25.10;52.10;;;;;;4990046;28;20465;-49
2022/07/24 11:40:16;;;;;;;4.10;3.80;;;25.10;52.10;;;;;;4991198;28;20438;-50
2022/07/24 11:42:44;;;;;;;4.10;3.80;;;25.10;52.10;;;;;;4989897;28;20793;-49
2022/07/24 11:45:13;;;;;;;4.13;3.80;;;25.10;52.10;;;;;;4989676;28;20975;-50
2022/07/24 11:47:41;;;;;;;4.00;3.70;;;25.10;52.10;;;;;;4999338;28;20550;-48
2022/07/24 11:50:11;;;;;;;4.40;4.10;;;25.10;52.10;;;;;;4988096;28;20818;-50
2022/07/24 11:52:40;;;;;;;3.97;3.67;;;25.10;52.10;;;;;;5001714;28;20484;-46
2022/07/24 11:55:11;;;;;;;4.07;3.67;;;25.10;52.10;;;;;;4982618;28;20438;-47
2022/07/24 11:57:47;;;;;;;4.37;4.00;;;25.10;52.10;;;;;;4999047;28;20472;-46
2022/07/24 12:00:35;;;;;;;4.30;4.00;;;25.10;52.10;;;;;;5001111;28;20798;-50
2022/07/24 12:03:06;;;;;;;4.27;3.87;;;25.10;52.10;;;;;;5002025;28;20527;-49
2022/07/24 12:05:39;;;;;;;3.83;3.53;;;25.10;52.10;;;;;;4999706;28;20538;-48
2022/07/24 12:08:17;;;;;;;4.03;3.73;;;25.20;52.20;;;;;;4983400;28;20505;-49
2022/07/24 12:10:48;;;;;;;3.97;3.73;;;25.10;52.70;;;;;;4999347;28;20477;-48
2022/07/24 12:13:17;;;;;;;3.80;3.60;;;25.10;52.10;;;;;;4987781;28;20947;-52
2022/07/24 12:15:46;;;;;;;4.50;4.20;;;25.20;52.30;;;;;;4988295;28;20480;-49
2022/07/24 12:18:14;;;;;;;4.80;4.07;;;25.20;52.20;;;;;;4990842;28;20502;-49
2022/07/24 12:20:45;;;;;;;3.97;3.67;;;25.20;52.20;;;;;;4996050;28;20535;-50
2022/07/24 12:23:18;;;;;;;4.20;3.90;;;25.20;52.20;;;;;;4983874;28;20466;-49
2022/07/24 12:25:47;;;;;;;3.93;3.67;;;25.20;52.10;;;;;;4999219;28;20430;-49
2022/07/24 12:28:18;;;;;;;3.80;3.57;;;25.20;52.20;;;;;;4997320;28;20567;-50
2022/07/24 12:30:48;;;;;;;3.70;3.40;;;25.20;52.20;;;;;;4984446;28;20544;-49
2022/07/24 12:33:22;;;;;;;4.30;4.00;;;25.20;52.20;;;;;;5002822;28;20568;-48
2022/07/24 12:35:56;;;;;;;4.70;4.40;;;25.20;52.10;;;;;;4994224;28;20492;-49
2022/07/24 12:38:29;;;;;;;4.47;4.10;;;25.30;52.30;;;;;;4973376;28;20515;-49
2022/07/24 12:41:04;;;;;;;3.47;3.17;;;25.30;52.30;;;;;;4990937;28;20427;-49
2022/07/24 12:43:33;;;;;;;4.20;3.90;;;25.30;53.50;;;;;;4997501;28;20488;-48
2022/07/24 12:46:09;;;;;;;3.90;3.60;;;25.30;52.40;;;;;;4996039;28;20452;-50
2022/07/24 12:48:37;;;;;;;4.13;3.83;;;25.30;52.40;;;;;;4996761;28;20482;-48
2022/07/24 12:51:10;;;;;;;4.00;3.70;;;25.30;52.30;;;;;;5002403;28;20430;-47
2022/07/24 12:53:40;;;;;;;3.83;3.53;;;25.30;52.20;;;;;;4989096;28;20472;-48
2022/07/24 12:56:14;;;;;;;4.40;4.10;;;25.40;52.30;;;;;;4990544;28;20449;-47
2022/07/24 12:59:00;;;;;;;4.57;4.17;;;25.40;52.40;;;;;;4998189;28;20547;-47
2022/07/24 13:01:47;;;;;;;3.90;3.60;;;25.40;52.40;;;;;;4985433;28;20450;-47